sensor_id;sensor_type;location;lat;lon;timestamp;P1;durP1;ratioP1;P2;durP2;ratioP2
37239;SDS011;23130;48.760;9.178;2023-07-28T13:54:34;6.82;;;3.40;;
37239;SDS011;23130;48.760;9.178;2023-07-28T13:57:00;4.43;;;3.38;;
37239;SDS011;23130;48.760;9.178;2023-07-28T13:59:26;6.47;;;3.70;;
37239;SDS011;23130;48.760;9.178;2023-07-28T14:01:52;8.68;;;3.80;;
37239;SDS011;23130;48.760;9.178;2023-07-28T14:04:17;7.50;;;4.35;;
37239;SDS011;23130;48.760;9.178;2023-07-28T14:06:43;9.63;;;4.40;;
37239;SDS011;23130;48.760;9.178;2023-07-28T14:09:09;8.32;;;4.82;;
37239;SDS011;23130;48.760;9.178;2023-07-28T14:11:34;9.95;;;4.07;;
37239;SDS011;23130;48.760;9.178;2023-07-28T14:14:00;6.20;;;4.35;;
37239;SDS011;23130;48.760;9.178;2023-07-28T14:16:26;11.27;;;4.97;;
37239;SDS011;23130;48.760;9.178;2023-07-28T14:18:51;5.40;;;4.18;;
37239;SDS011;23130;48.760;9.178;2023-07-28T14:21:17;8.73;;;4.38;;
37239;SDS011;23130;48.760;9.178;2023-07-28T14:23:42;8.30;;;5.28;;
37239;SDS011;23130;48.760;9.178;2023-07-28T14:26:08;9.07;;;5.32;;
37239;SDS011;23130;48.760;9.178;2023-07-28T14:28:33;11.63;;;5.80;;
37239;SDS011;23130;48.760;9.178;2023-07-28T14:30:59;27.90;;;16.58;;
37239;SDS011;23130;48.760;9.178;2023-07-28T14:33:25;8.85;;;6.90;;
37239;SDS011;23130;48.760;9.178;2023-07-28T14:35:51;21.67;;;13.93;;
37239;SDS011;23130;48.760;9.178;2023-07-28T14:38:17;13.75;;;8.77;;
37239;SDS011;23130;48.760;9.178;2023-07-28T14:40:43;8.93;;;5.97;;
37239;SDS011;23130;48.760;9.178;2023-07-28T14:43:11;8.52;;;5.28;;
37239;SDS011;23130;48.760;9.178;2023-07-28T14:45:37;6.03;;;4.82;;
37239;SDS011;23130;48.760;9.178;2023-07-28T14:48:02;6.30;;;5.07;;
37239;SDS011;23130;48.760;9.178;2023-07-28T14:50:28;6.88;;;5.00;;
37239;SDS011;23130;48.760;9.178;2023-07-28T14:52:57;9.13;;;4.95;;
37239;SDS011;23130;48.760;9.178;2023-07-28T14:55:23;5.95;;;4.60;;
37239;SDS011;23130;48.760;9.178;2023-07-28T14:57:49;8.15;;;5.38;;
37239;SDS011;23130;48.760;9.178;2023-07-28T15:00:14;6.68;;;4.72;;
37239;SDS011;23130;48.760;9.178;2023-07-28T15:02:41;6.35;;;4.68;;
37239;SDS011;23130;48.760;9.178;2023-07-28T15:05:07;5.93;;;5.10;;
37239;SDS011;23130;48.760;9.178;2023-07-28T15:07:33;8.60;;;5.10;;
37239;SDS011;23130;48.760;9.178;2023-07-28T15:10:00;8.15;;;4.80;;
37239;SDS011;23130;48.760;9.178;2023-07-28T15:12:26;6.35;;;4.38;;
37239;SDS011;23130;48.760;9.178;2023-07-28T15:14:51;8.13;;;5.00;;
37239;SDS011;23130;48.760;9.178;2023-07-28T15:17:17;6.88;;;4.07;;
37239;SDS011;23130;48.760;9.178;2023-07-28T15:19:42;8.02;;;4.68;;
37239;SDS011;23130;48.760;9.178;2023-07-28T15:22:09;5.68;;;4.05;;
37239;SDS011;23130;48.760;9.178;2023-07-28T15:24:35;6.13;;;3.90;;
37239;SDS011;23130;48.760;9.178;2023-07-28T15:27:00;5.45;;;3.67;;
37239;SDS011;23130;48.760;9.178;2023-07-28T15:29:26;4.68;;;3.22;;
37239;SDS011;23130;48.760;9.178;2023-07-28T15:31:51;5.05;;;3.38;;
37239;SDS011;23130;48.760;9.178;2023-07-28T15:34:18;4.18;;;3.35;;
37239;SDS011;23130;48.760;9.178;2023-07-28T15:36:44;4.53;;;3.67;;
37239;SDS011;23130;48.760;9.178;2023-07-28T15:39:10;5.18;;;3.70;;
37239;SDS011;23130;48.760;9.178;2023-07-28T15:41:35;6.13;;;3.97;;
37239;SDS011;23130;48.760;9.178;2023-07-28T15:44:01;5.95;;;3.83;;
37239;SDS011;23130;48.760;9.178;2023-07-28T15:46:29;5.20;;;3.50;;
37239;SDS011;23130;48.760;9.178;2023-07-28T15:48:55;5.03;;;3.85;;
37239;SDS011;23130;48.760;9.178;2023-07-28T15:51:21;6.32;;;3.10;;
37239;SDS011;23130;48.760;9.178;2023-07-28T15:53:47;5.40;;;3.92;;
37239;SDS011;23130;48.760;9.178;2023-07-28T15:56:12;5.32;;;3.40;;
37239;SDS011;23130;48.760;9.178;2023-07-28T15:58:38;7.80;;;4.20;;
37239;SDS011;23130;48.760;9.178;2023-07-28T16:01:03;6.50;;;4.50;;
37239;SDS011;23130;48.760;9.178;2023-07-28T16:03:32;4.40;;;3.75;;
37239;SDS011;23130;48.760;9.178;2023-07-28T16:05:58;5.05;;;3.78;;
37239;SDS011;23130;48.760;9.178;2023-07-28T16:08:23;7.25;;;4.43;;
37239;SDS011;23130;48.760;9.178;2023-07-28T16:10:50;7.28;;;4.30;;
37239;SDS011;23130;48.760;9.178;2023-07-28T16:13:16;4.20;;;3.15;;
37239;SDS011;23130;48.760;9.178;2023-07-28T16:15:42;5.22;;;4.05;;
37239;SDS011;23130;48.760;9.178;2023-07-28T16:18:07;6.47;;;4.32;;
37239;SDS011;23130;48.760;9.178;2023-07-28T16:20:36;6.72;;;4.15;;
37239;SDS011;23130;48.760;9.178;2023-07-28T16:23:02;5.32;;;4.00;;
37239;SDS011;23130;48.760;9.178;2023-07-28T16:25:28;6.55;;;4.03;;
37239;SDS011;23130;48.760;9.178;2023-07-28T16:27:54;6.85;;;4.72;;
37239;SDS011;23130;48.760;9.178;2023-07-28T16:30:19;6.97;;;4.35;;
37239;SDS011;23130;48.760;9.178;2023-07-28T16:33:51;6.45;;;4.07;;
37239;SDS011;23130;48.760;9.178;2023-07-28T16:36:17;5.07;;;4.00;;
37239;SDS011;23130;48.760;9.178;2023-07-28T16:39:58;5.82;;;4.38;;
37239;SDS011;23130;48.760;9.178;2023-07-28T16:42:25;6.40;;;4.50;;
37239;SDS011;23130;48.760;9.178;2023-07-28T16:44:50;6.13;;;4.60;;
37239;SDS011;23130;48.760;9.178;2023-07-28T16:47:16;6.55;;;4.63;;
37239;SDS011;23130;48.760;9.178;2023-07-28T16:49:44;7.30;;;4.95;;
37239;SDS011;23130;48.760;9.178;2023-07-28T16:52:09;6.88;;;4.85;;
37239;SDS011;23130;48.760;9.178;2023-07-28T16:54:35;6.65;;;4.18;;
37239;SDS011;23130;48.760;9.178;2023-07-28T16:57:02;5.65;;;4.28;;
37239;SDS011;23130;48.760;9.178;2023-07-28T16:59:28;7.40;;;4.28;;
37239;SDS011;23130;48.760;9.178;2023-07-28T17:01:53;6.40;;;4.38;;
37239;SDS011;23130;48.760;9.178;2023-07-28T17:04:19;9.00;;;4.75;;
37239;SDS011;23130;48.760;9.178;2023-07-28T17:06:44;8.00;;;5.00;;
37239;SDS011;23130;48.760;9.178;2023-07-28T17:09:10;6.18;;;4.25;;
37239;SDS011;23130;48.760;9.178;2023-07-28T17:11:35;6.55;;;4.00;;
37239;SDS011;23130;48.760;9.178;2023-07-28T17:14:01;8.88;;;4.97;;
37239;SDS011;23130;48.760;9.178;2023-07-28T17:16:27;5.07;;;4.00;;
37239;SDS011;23130;48.760;9.178;2023-07-28T17:18:54;6.72;;;4.63;;
37239;SDS011;23130;48.760;9.178;2023-07-28T17:21:21;6.30;;;4.35;;
37239;SDS011;23130;48.760;9.178;2023-07-28T17:23:46;4.53;;;4.13;;
37239;SDS011;23130;48.760;9.178;2023-07-28T17:26:12;5.70;;;4.15;;
37239;SDS011;23130;48.760;9.178;2023-07-28T17:28:38;5.00;;;3.95;;
37239;SDS011;23130;48.760;9.178;2023-07-28T17:31:03;6.90;;;4.82;;
37239;SDS011;23130;48.760;9.178;2023-07-28T17:33:30;7.00;;;4.97;;
37239;SDS011;23130;48.760;9.178;2023-07-28T17:35:56;6.82;;;5.22;;
37239;SDS011;23130;48.760;9.178;2023-07-28T17:38:25;5.45;;;4.80;;
37239;SDS011;23130;48.760;9.178;2023-07-28T17:40:53;8.13;;;5.85;;
37239;SDS011;23130;48.760;9.178;2023-07-28T17:43:19;7.20;;;5.93;;
37239;SDS011;23130;48.760;9.178;2023-07-28T17:45:45;6.28;;;5.65;;
37239;SDS011;23130;48.760;9.178;2023-07-28T17:48:10;7.95;;;5.80;;
37239;SDS011;23130;48.760;9.178;2023-07-28T17:50:36;8.68;;;5.47;;
37239;SDS011;23130;48.760;9.178;2023-07-28T17:53:02;9.38;;;5.38;;
37239;SDS011;23130;48.760;9.178;2023-07-28T17:55:27;5.75;;;4.70;;
37239;SDS011;23130;48.760;9.178;2023-07-28T17:57:53;7.05;;;5.50;;
37239;SDS011;23130;48.760;9.178;2023-07-28T18:00:19;6.70;;;5.50;;
37239;SDS011;23130;48.760;9.178;2023-07-28T18:02:46;6.63;;;5.05;;
37239;SDS011;23130;48.760;9.178;2023-07-28T18:05:11;7.75;;;4.53;;
37239;SDS011;23130;48.760;9.178;2023-07-28T18:07:37;8.98;;;5.35;;
37239;SDS011;23130;48.760;9.178;2023-07-28T18:10:04;8.02;;;6.05;;
37239;SDS011;23130;48.760;9.178;2023-07-28T18:12:31;6.20;;;4.90;;
37239;SDS011;23130;48.760;9.178;2023-07-28T18:14:56;9.00;;;5.13;;
37239;SDS011;23130;48.760;9.178;2023-07-28T18:17:23;6.28;;;4.45;;
37239;SDS011;23130;48.760;9.178;2023-07-28T18:19:49;6.28;;;5.00;;
37239;SDS011;23130;48.760;9.178;2023-07-28T18:22:15;6.28;;;5.10;;
37239;SDS011;23130;48.760;9.178;2023-07-28T18:24:41;7.88;;;4.93;;
37239;SDS011;23130;48.760;9.178;2023-07-28T18:27:06;7.25;;;4.35;;
37239;SDS011;23130;48.760;9.178;2023-07-28T18:29:32;6.15;;;4.43;;
37239;SDS011;23130;48.760;9.178;2023-07-28T18:31:59;5.60;;;4.47;;
37239;SDS011;23130;48.760;9.178;2023-07-28T18:34:25;6.20;;;4.38;;
37239;SDS011;23130;48.760;9.178;2023-07-28T18:36:51;7.28;;;4.28;;
37239;SDS011;23130;48.760;9.178;2023-07-28T18:39:18;6.28;;;4.43;;
37239;SDS011;23130;48.760;9.178;2023-07-28T18:41:45;6.78;;;4.85;;
37239;SDS011;23130;48.760;9.178;2023-07-28T18:44:12;5.40;;;4.25;;
37239;SDS011;23130;48.760;9.178;2023-07-28T18:46:38;7.65;;;4.43;;
37239;SDS011;23130;48.760;9.178;2023-07-28T18:49:03;6.47;;;4.20;;
37239;SDS011;23130;48.760;9.178;2023-07-28T18:51:29;5.40;;;4.50;;
37239;SDS011;23130;48.760;9.178;2023-07-28T18:53:55;7.78;;;4.80;;
37239;SDS011;23130;48.760;9.178;2023-07-28T18:56:20;7.05;;;5.15;;
37239;SDS011;23130;48.760;9.178;2023-07-28T18:58:47;7.10;;;5.18;;
37239;SDS011;23130;48.760;9.178;2023-07-28T19:01:14;6.93;;;5.15;;
37239;SDS011;23130;48.760;9.178;2023-07-28T19:03:41;6.63;;;5.18;;
37239;SDS011;23130;48.760;9.178;2023-07-28T19:06:06;6.53;;;5.45;;
37239;SDS011;23130;48.760;9.178;2023-07-28T19:08:33;6.63;;;5.13;;
37239;SDS011;23130;48.760;9.178;2023-07-28T19:10:59;8.98;;;5.20;;
37239;SDS011;23130;48.760;9.178;2023-07-28T19:13:25;7.72;;;5.80;;
37239;SDS011;23130;48.760;9.178;2023-07-28T19:15:51;7.50;;;4.90;;
37239;SDS011;23130;48.760;9.178;2023-07-28T19:18:18;7.68;;;5.88;;
37239;SDS011;23130;48.760;9.178;2023-07-28T19:20:45;7.40;;;5.72;;
37239;SDS011;23130;48.760;9.178;2023-07-28T19:23:12;7.32;;;5.57;;
37239;SDS011;23130;48.760;9.178;2023-07-28T19:25:39;8.23;;;5.03;;
37239;SDS011;23130;48.760;9.178;2023-07-28T19:28:06;8.85;;;4.60;;
37239;SDS011;23130;48.760;9.178;2023-07-28T19:30:32;6.55;;;4.50;;
37239;SDS011;23130;48.760;9.178;2023-07-28T19:32:58;7.18;;;5.05;;
37239;SDS011;23130;48.760;9.178;2023-07-28T19:35:23;11.02;;;4.22;;
37239;SDS011;23130;48.760;9.178;2023-07-28T19:37:50;7.93;;;4.53;;
37239;SDS011;23130;48.760;9.178;2023-07-28T19:40:16;7.05;;;4.80;;
37239;SDS011;23130;48.760;9.178;2023-07-28T19:42:41;8.73;;;4.72;;
37239;SDS011;23130;48.760;9.178;2023-07-28T19:45:07;6.18;;;4.60;;
37239;SDS011;23130;48.760;9.178;2023-07-28T19:47:34;9.75;;;4.20;;
37239;SDS011;23130;48.760;9.178;2023-07-28T19:50:05;7.97;;;4.85;;
37239;SDS011;23130;48.760;9.178;2023-07-28T19:52:31;6.95;;;5.22;;
37239;SDS011;23130;48.760;9.178;2023-07-28T19:54:58;11.32;;;5.40;;
37239;SDS011;23130;48.760;9.178;2023-07-28T19:57:23;8.93;;;4.70;;
37239;SDS011;23130;48.760;9.178;2023-07-28T19:59:50;8.05;;;4.20;;
37239;SDS011;23130;48.760;9.178;2023-07-28T20:02:17;4.88;;;3.55;;
37239;SDS011;23130;48.760;9.178;2023-07-28T20:04:44;6.88;;;3.67;;
37239;SDS011;23130;48.760;9.178;2023-07-28T20:07:09;5.28;;;3.08;;
37239;SDS011;23130;48.760;9.178;2023-07-28T20:09:35;3.30;;;2.50;;
37239;SDS011;23130;48.760;9.178;2023-07-28T20:12:01;3.58;;;2.35;;
37239;SDS011;23130;48.760;9.178;2023-07-28T20:14:31;3.90;;;2.00;;
37239;SDS011;23130;48.760;9.178;2023-07-28T20:16:56;3.25;;;1.50;;
37239;SDS011;23130;48.760;9.178;2023-07-28T20:19:22;2.53;;;1.70;;
37239;SDS011;23130;48.760;9.178;2023-07-28T20:21:48;2.63;;;1.70;;
37239;SDS011;23130;48.760;9.178;2023-07-28T20:24:13;1.60;;;1.25;;
37239;SDS011;23130;48.760;9.178;2023-07-28T20:26:39;3.90;;;1.60;;
37239;SDS011;23130;48.760;9.178;2023-07-28T20:29:04;4.72;;;1.40;;
37239;SDS011;23130;48.760;9.178;2023-07-28T20:31:31;2.92;;;1.55;;
37239;SDS011;23130;48.760;9.178;2023-07-28T20:33:56;2.28;;;1.27;;
37239;SDS011;23130;48.760;9.178;2023-07-28T20:36:22;2.58;;;1.35;;
37239;SDS011;23130;48.760;9.178;2023-07-28T20:38:51;2.80;;;1.42;;
37239;SDS011;23130;48.760;9.178;2023-07-28T20:41:17;1.75;;;0.98;;
37239;SDS011;23130;48.760;9.178;2023-07-28T20:43:44;1.83;;;1.15;;
37239;SDS011;23130;48.760;9.178;2023-07-28T20:46:10;1.73;;;1.30;;
37239;SDS011;23130;48.760;9.178;2023-07-28T20:48:35;1.17;;;0.85;;
37239;SDS011;23130;48.760;9.178;2023-07-28T20:51:03;3.67;;;1.00;;
37239;SDS011;23130;48.760;9.178;2023-07-28T20:53:28;2.58;;;0.73;;
37239;SDS011;23130;48.760;9.178;2023-07-28T20:55:57;2.55;;;0.90;;
37239;SDS011;23130;48.760;9.178;2023-07-28T20:58:23;1.95;;;0.90;;
37239;SDS011;23130;48.760;9.178;2023-07-28T21:00:51;1.27;;;0.57;;
37239;SDS011;23130;48.760;9.178;2023-07-28T21:03:19;1.38;;;0.80;;
37239;SDS011;23130;48.760;9.178;2023-07-28T21:05:45;2.58;;;0.70;;
37239;SDS011;23130;48.760;9.178;2023-07-28T21:08:11;2.88;;;0.88;;
37239;SDS011;23130;48.760;9.178;2023-07-28T21:10:38;2.60;;;1.10;;
37239;SDS011;23130;48.760;9.178;2023-07-28T21:13:05;1.40;;;0.82;;
37239;SDS011;23130;48.760;9.178;2023-07-28T21:15:39;2.50;;;1.30;;
37239;SDS011;23130;48.760;9.178;2023-07-28T21:18:06;1.85;;;1.00;;
37239;SDS011;23130;48.760;9.178;2023-07-28T21:20:31;2.00;;;0.90;;
37239;SDS011;23130;48.760;9.178;2023-07-28T21:22:58;3.30;;;1.00;;
37239;SDS011;23130;48.760;9.178;2023-07-28T21:25:24;2.85;;;0.95;;
37239;SDS011;23130;48.760;9.178;2023-07-28T21:27:51;2.42;;;1.00;;
37239;SDS011;23130;48.760;9.178;2023-07-28T21:30:18;2.17;;;1.00;;
37239;SDS011;23130;48.760;9.178;2023-07-28T21:32:43;2.67;;;0.85;;
37239;SDS011;23130;48.760;9.178;2023-07-28T21:35:10;2.20;;;1.23;;
37239;SDS011;23130;48.760;9.178;2023-07-28T21:37:36;5.38;;;1.02;;
37239;SDS011;23130;48.760;9.178;2023-07-28T21:40:01;4.55;;;1.55;;
37239;SDS011;23130;48.760;9.178;2023-07-28T21:42:30;2.38;;;0.95;;
37239;SDS011;23130;48.760;9.178;2023-07-28T21:44:55;3.45;;;0.95;;
37239;SDS011;23130;48.760;9.178;2023-07-28T21:47:25;2.00;;;1.08;;
37239;SDS011;23130;48.760;9.178;2023-07-28T21:49:52;2.08;;;1.08;;
37239;SDS011;23130;48.760;9.178;2023-07-28T21:52:21;6.18;;;1.20;;
37239;SDS011;23130;48.760;9.178;2023-07-28T21:54:48;3.28;;;1.23;;
37239;SDS011;23130;48.760;9.178;2023-07-28T21:57:13;2.83;;;1.60;;
37239;SDS011;23130;48.760;9.178;2023-07-28T21:59:39;3.00;;;1.13;;
37239;SDS011;23130;48.760;9.178;2023-07-28T22:02:05;4.20;;;1.25;;
37239;SDS011;23130;48.760;9.178;2023-07-28T22:04:34;2.58;;;1.00;;
37239;SDS011;23130;48.760;9.178;2023-07-28T22:06:59;3.15;;;1.63;;
37239;SDS011;23130;48.760;9.178;2023-07-28T22:09:26;1.92;;;1.05;;
37239;SDS011;23130;48.760;9.178;2023-07-28T22:11:52;3.03;;;1.40;;
37239;SDS011;23130;48.760;9.178;2023-07-28T22:14:18;2.55;;;1.40;;
37239;SDS011;23130;48.760;9.178;2023-07-28T22:16:45;3.35;;;1.10;;
37239;SDS011;23130;48.760;9.178;2023-07-28T22:19:12;6.40;;;1.20;;
37239;SDS011;23130;48.760;9.178;2023-07-28T22:21:38;2.83;;;1.23;;
37239;SDS011;23130;48.760;9.178;2023-07-28T22:24:05;3.90;;;1.30;;
37239;SDS011;23130;48.760;9.178;2023-07-28T22:26:34;4.10;;;1.40;;
37239;SDS011;23130;48.760;9.178;2023-07-28T22:29:00;3.67;;;1.50;;
37239;SDS011;23130;48.760;9.178;2023-07-28T22:31:26;2.10;;;1.20;;
37239;SDS011;23130;48.760;9.178;2023-07-28T22:33:51;3.15;;;1.30;;
37239;SDS011;23130;48.760;9.178;2023-07-28T22:36:17;1.50;;;1.00;;
37239;SDS011;23130;48.760;9.178;2023-07-28T22:38:42;2.30;;;1.10;;
37239;SDS011;23130;48.760;9.178;2023-07-28T22:41:08;2.53;;;0.98;;
37239;SDS011;23130;48.760;9.178;2023-07-28T22:43:34;4.10;;;1.10;;
37239;SDS011;23130;48.760;9.178;2023-07-28T22:45:59;2.25;;;0.95;;
37239;SDS011;23130;48.760;9.178;2023-07-28T22:48:25;3.08;;;1.42;;
37239;SDS011;23130;48.760;9.178;2023-07-28T22:50:51;1.30;;;0.80;;
37239;SDS011;23130;48.760;9.178;2023-07-28T22:53:17;4.43;;;1.35;;
37239;SDS011;23130;48.760;9.178;2023-07-28T22:55:44;1.35;;;0.90;;
37239;SDS011;23130;48.760;9.178;2023-07-28T22:58:10;3.75;;;1.30;;
37239;SDS011;23130;48.760;9.178;2023-07-28T23:00:36;2.58;;;0.93;;
37239;SDS011;23130;48.760;9.178;2023-07-28T23:03:02;3.05;;;0.88;;
37239;SDS011;23130;48.760;9.178;2023-07-28T23:05:28;2.45;;;0.98;;
37239;SDS011;23130;48.760;9.178;2023-07-28T23:07:53;1.42;;;0.93;;
37239;SDS011;23130;48.760;9.178;2023-07-28T23:10:20;2.90;;;1.10;;
37239;SDS011;23130;48.760;9.178;2023-07-28T23:12:46;2.88;;;1.15;;
37239;SDS011;23130;48.760;9.178;2023-07-28T23:15:12;1.45;;;0.75;;
37239;SDS011;23130;48.760;9.178;2023-07-28T23:17:39;2.60;;;1.58;;
37239;SDS011;23130;48.760;9.178;2023-07-28T23:20:05;1.52;;;0.80;;
37239;SDS011;23130;48.760;9.178;2023-07-28T23:22:31;2.97;;;0.93;;
37239;SDS011;23130;48.760;9.178;2023-07-28T23:24:57;3.67;;;1.10;;
37239;SDS011;23130;48.760;9.178;2023-07-28T23:27:23;1.60;;;0.70;;
37239;SDS011;23130;48.760;9.178;2023-07-28T23:29:49;2.47;;;0.93;;
37239;SDS011;23130;48.760;9.178;2023-07-28T23:32:15;2.45;;;0.80;;
37239;SDS011;23130;48.760;9.178;2023-07-28T23:34:41;1.52;;;0.75;;
37239;SDS011;23130;48.760;9.178;2023-07-28T23:37:07;1.55;;;1.08;;
37239;SDS011;23130;48.760;9.178;2023-07-28T23:39:32;2.05;;;1.02;;
37239;SDS011;23130;48.760;9.178;2023-07-28T23:41:58;1.60;;;0.68;;
37239;SDS011;23130;48.760;9.178;2023-07-28T23:44:25;3.42;;;1.25;;
37239;SDS011;23130;48.760;9.178;2023-07-28T23:46:51;2.70;;;0.90;;
37239;SDS011;23130;48.760;9.178;2023-07-28T23:49:19;1.17;;;0.55;;
37239;SDS011;23130;48.760;9.178;2023-07-28T23:51:45;2.70;;;0.98;;
37239;SDS011;23130;48.760;9.178;2023-07-28T23:54:12;3.20;;;0.80;;
37239;SDS011;23130;48.760;9.178;2023-07-28T23:56:38;1.38;;;0.73;;
37239;SDS011;23130;48.760;9.178;2023-07-28T23:59:03;1.95;;;0.70;;
